createdAt,value
2018-02-15T00:00:54.431Z,42.33
2018-02-15T00:03:21.486Z,37.00
2018-02-15T00:05:47.572Z,38.05
2018-02-15T00:08:13.614Z,35.97
2018-02-15T00:10:40.860Z,38.65
2018-02-15T00:13:07.081Z,35.20
2018-02-15T00:15:34.132Z,38.67
2018-02-15T00:18:00.187Z,39.65
2018-02-15T00:20:26.239Z,37.35
2018-02-15T00:22:52.220Z,39.33
2018-02-15T00:25:18.188Z,40.17
2018-02-15T00:27:44.307Z,35.70
2018-02-15T00:30:11.547Z,36.00
2018-02-15T00:32:37.633Z,43.50
2018-02-15T00:35:03.875Z,42.62
2018-02-15T00:37:30.046Z,38.65
2018-02-15T00:39:56.086Z,36.10
2018-02-15T00:42:22.126Z,40.80
2018-02-15T00:44:48.161Z,37.63
2018-02-15T00:47:14.180Z,42.78
2018-02-15T00:49:40.188Z,39.97
2018-02-15T00:52:06.228Z,42.33
2018-02-15T00:54:32.281Z,45.30
2018-02-15T00:56:58.284Z,42.08
2018-02-15T00:59:24.405Z,40.33
2018-02-15T01:01:50.411Z,39.33
2018-02-15T01:04:16.419Z,42.38
2018-02-15T01:06:42.564Z,42.83
2018-02-15T01:09:08.632Z,41.15
2018-02-15T01:11:34.619Z,40.05
2018-02-15T01:14:00.717Z,44.22
2018-02-15T01:16:26.797Z,44.42
2018-02-15T01:18:53.837Z,38.67
2018-02-15T01:21:20.567Z,39.70
2018-02-15T01:23:46.582Z,41.17
2018-02-15T01:26:14.370Z,42.95
2018-02-15T01:28:40.523Z,39.60
2018-02-15T01:31:06.690Z,43.95
2018-02-15T01:33:33.431Z,38.30
2018-02-15T01:35:59.489Z,39.50
2018-02-15T01:38:25.494Z,39.25
2018-02-15T01:40:51.718Z,42.60
2018-02-15T01:43:18.767Z,44.90
2018-02-15T01:45:44.804Z,44.75
2018-02-15T01:48:11.061Z,42.45
2018-02-15T01:50:37.360Z,42.13
2018-02-15T01:53:03.474Z,37.40
2018-02-15T01:55:30.979Z,43.22
2018-02-15T01:57:57.222Z,43.65
2018-02-15T02:00:23.304Z,39.88
2018-02-15T02:02:49.377Z,42.83
2018-02-15T02:05:15.431Z,39.17
2018-02-15T02:07:41.524Z,41.40
2018-02-15T02:10:07.512Z,42.95
2018-02-15T02:12:33.611Z,44.57
2018-02-15T02:14:59.598Z,43.75
2018-02-15T02:17:25.827Z,45.50
2018-02-15T02:19:51.849Z,44.40
2018-02-15T02:22:17.836Z,35.38
2018-02-15T02:24:43.856Z,40.93
2018-02-15T02:27:09.916Z,45.95
2018-02-15T02:29:35.988Z,40.65
2018-02-15T02:32:02.748Z,40.63
2018-02-15T02:34:28.793Z,44.42
2018-02-15T02:36:55.061Z,42.15
2018-02-15T02:39:21.094Z,37.58
2018-02-15T02:41:47.194Z,42.13
2018-02-15T02:44:13.242Z,42.83
2018-02-15T02:46:39.779Z,40.92
2018-02-15T02:49:05.901Z,46.00
2018-02-15T02:51:31.894Z,42.72
2018-02-15T02:53:57.895Z,41.67
2018-02-15T02:56:23.976Z,40.70
2018-02-15T02:58:50.973Z,42.42
2018-02-15T03:01:17.003Z,37.67
2018-02-15T03:03:42.995Z,43.65
2018-02-15T03:06:09.018Z,36.03
2018-02-15T03:08:35.024Z,42.75
2018-02-15T03:11:01.031Z,47.28
2018-02-15T03:13:27.006Z,49.72
2018-02-15T03:15:53.278Z,42.70
2018-02-15T03:18:19.652Z,41.00
2018-02-15T03:20:45.670Z,43.45
2018-02-15T03:23:11.697Z,44.10
2018-02-15T03:25:37.704Z,41.17
2018-02-15T03:28:04.452Z,41.45
2018-02-15T03:30:30.499Z,38.88
2018-02-15T03:32:56.734Z,36.85
2018-02-15T03:35:22.710Z,42.20
2018-02-15T03:37:48.780Z,40.67
2018-02-15T03:40:14.761Z,43.45
2018-02-15T03:42:40.812Z,42.07
2018-02-15T03:45:07.794Z,43.97
2018-02-15T03:47:33.787Z,38.25
2018-02-15T03:49:59.762Z,43.33
2018-02-15T03:52:25.771Z,40.47
2018-02-15T03:54:51.808Z,42.58
2018-02-15T03:57:17.830Z,39.05
2018-02-15T03:59:43.839Z,43.28
2018-02-15T04:02:09.831Z,40.12
2018-02-15T04:04:36.560Z,39.13
2018-02-15T04:07:02.569Z,42.10
2018-02-15T04:09:28.573Z,44.58
2018-02-15T04:11:54.632Z,38.72
2018-02-15T04:14:20.850Z,41.95
2018-02-15T04:16:46.848Z,36.97
2018-02-15T04:19:12.944Z,43.83
2018-02-15T04:21:39.015Z,36.85
2018-02-15T04:24:05.026Z,45.55
2018-02-15T04:26:31.043Z,48.13
2018-02-15T04:28:57.068Z,42.47
2018-02-15T04:31:23.085Z,45.40
2018-02-15T04:33:49.112Z,42.13
2018-02-15T04:36:15.131Z,42.17
2018-02-15T04:38:41.261Z,39.60
2018-02-15T04:41:07.763Z,41.90
2018-02-15T04:43:33.838Z,48.83
2018-02-15T04:45:59.863Z,49.60
2018-02-15T04:48:25.942Z,48.00
2018-02-15T04:50:54.142Z,51.30
2018-02-15T04:53:20.802Z,43.55
2018-02-15T04:55:47.702Z,48.60
2018-02-15T04:58:13.847Z,45.05
2018-02-15T05:00:39.873Z,39.80
2018-02-15T05:03:06.173Z,57.67
2018-02-15T05:05:32.244Z,52.38
2018-02-15T05:07:58.249Z,45.90
2018-02-15T05:10:24.295Z,40.95
2018-02-15T05:12:52.271Z,42.10
2018-02-15T05:15:18.454Z,42.25
2018-02-15T05:17:44.603Z,49.80
2018-02-15T05:20:10.832Z,54.72
2018-02-15T05:22:38.075Z,50.03
2018-02-15T05:25:05.072Z,44.75
2018-02-15T05:27:31.127Z,40.88
2018-02-15T05:29:57.177Z,50.42
2018-02-15T05:32:23.188Z,54.40
2018-02-15T05:34:49.270Z,45.12
2018-02-15T05:37:15.340Z,42.58
2018-02-15T05:39:41.477Z,45.22
2018-02-15T05:42:07.683Z,42.10
2018-02-15T05:44:33.720Z,46.03
2018-02-15T05:46:59.748Z,42.08
2018-02-15T05:49:25.981Z,41.30
2018-02-15T05:51:51.972Z,47.38
2018-02-15T05:54:17.981Z,54.67
2018-02-15T05:56:44.438Z,39.28
2018-02-15T05:59:10.682Z,40.40
2018-02-15T06:01:36.704Z,39.97
2018-02-15T06:04:02.848Z,42.10
2018-02-15T06:06:28.825Z,35.80
2018-02-15T06:08:54.880Z,41.73
2018-02-15T06:11:21.676Z,35.30
2018-02-15T06:13:47.987Z,38.03
2018-02-15T06:16:14.046Z,31.58
2018-02-15T06:18:40.104Z,37.58
2018-02-15T06:21:06.318Z,39.35
2018-02-15T06:23:32.878Z,41.20
2018-02-15T06:25:59.130Z,37.78
2018-02-15T06:28:25.173Z,41.97
2018-02-15T06:30:51.617Z,39.72
2018-02-15T06:33:17.704Z,60.17
2018-02-15T06:35:43.732Z,47.88
2018-02-15T06:38:09.786Z,43.55
2018-02-15T06:40:35.789Z,43.70
2018-02-15T06:43:02.053Z,33.83
2018-02-15T06:45:28.122Z,51.45
2018-02-15T06:47:54.424Z,48.22
2018-02-15T06:50:20.498Z,54.60
2018-02-15T06:52:46.496Z,49.38
2018-02-15T06:55:15.792Z,47.47
2018-02-15T06:57:42.026Z,45.33
2018-02-15T07:00:08.076Z,46.08
2018-02-15T07:02:34.492Z,36.70
2018-02-15T07:05:00.555Z,36.38
2018-02-15T07:07:26.641Z,36.13
2018-02-15T07:09:52.815Z,38.03
2018-02-15T07:12:19.000Z,72.60
2018-02-15T07:14:45.033Z,68.82
2018-02-15T07:17:11.342Z,35.13
2018-02-15T07:19:37.576Z,40.25
2018-02-15T07:22:04.396Z,113.47
2018-02-15T07:24:30.376Z,32.42
2018-02-15T07:26:56.369Z,32.90
2018-02-15T07:29:22.495Z,36.00
2018-02-15T07:31:48.597Z,41.53
2018-02-15T07:34:14.599Z,35.70
2018-02-15T07:36:40.724Z,40.70
2018-02-15T07:39:07.044Z,32.85
2018-02-15T07:41:33.163Z,32.22
2018-02-15T07:43:59.158Z,33.38
2018-02-15T07:46:25.246Z,32.23
2018-02-15T07:48:53.143Z,61.47
2018-02-15T07:51:19.244Z,35.20
2018-02-15T07:53:47.366Z,36.15
2018-02-15T07:56:13.675Z,39.17
2018-02-15T07:58:40.690Z,38.90
2018-02-15T08:01:07.944Z,35.05
2018-02-15T08:03:34.066Z,31.80
2018-02-15T08:06:00.045Z,31.83
2018-02-15T08:08:26.021Z,25.83
2018-02-15T08:10:52.160Z,31.13
2018-02-15T08:13:18.149Z,25.25
2018-02-15T08:15:44.185Z,25.55
2018-02-15T08:18:10.209Z,34.58
2018-02-15T08:20:36.326Z,24.40
2018-02-15T08:23:03.299Z,25.02
2018-02-15T08:25:29.342Z,23.87
2018-02-15T08:27:55.370Z,20.85
2018-02-15T08:30:21.989Z,21.70
2018-02-15T08:32:48.055Z,27.65
2018-02-15T08:35:16.081Z,23.05
2018-02-15T08:37:42.208Z,24.08
2018-02-15T08:40:08.282Z,23.20
2018-02-15T08:42:34.357Z,24.52
2018-02-15T08:45:00.417Z,23.52
2018-02-15T08:47:26.467Z,20.75
2018-02-15T08:49:52.486Z,23.30
2018-02-15T08:52:19.314Z,24.60
2018-02-15T08:54:45.626Z,21.60
2018-02-15T08:57:11.675Z,25.52
2018-02-15T08:59:37.695Z,26.33
2018-02-15T09:02:04.664Z,17.92
2018-02-15T09:04:30.697Z,24.02
2018-02-15T09:06:56.737Z,23.10
2018-02-15T09:09:22.770Z,25.80
2018-02-15T09:11:49.168Z,26.02
2018-02-15T09:14:15.330Z,27.48
2018-02-15T09:16:41.385Z,25.30
2018-02-15T09:19:07.474Z,24.50
2018-02-15T09:21:34.477Z,27.33
2018-02-15T09:24:00.507Z,26.95
2018-02-15T09:26:26.523Z,26.55
2018-02-15T09:28:52.521Z,23.92
2018-02-15T09:31:18.740Z,26.80
2018-02-15T09:33:45.379Z,29.52
2018-02-15T09:36:12.235Z,32.70
2018-02-15T09:38:38.227Z,30.73
2018-02-15T09:41:04.340Z,28.57
2018-02-15T09:43:30.576Z,34.92
2018-02-15T09:45:56.631Z,37.67
2018-02-15T09:48:22.682Z,31.45
2018-02-15T09:50:48.788Z,25.60
2018-02-15T09:53:14.818Z,33.25
2018-02-15T09:55:40.819Z,28.40
2018-02-15T09:58:07.565Z,29.47
2018-02-15T10:00:34.327Z,26.40
2018-02-15T10:03:00.450Z,22.92
2018-02-15T10:05:26.766Z,26.55
2018-02-15T10:07:52.784Z,20.83
2018-02-15T10:10:19.162Z,24.42
2018-02-15T10:12:45.188Z,24.92
2018-02-15T10:15:11.194Z,27.90
2018-02-15T10:17:37.198Z,23.38
2018-02-15T10:20:04.285Z,17.35
2018-02-15T10:22:31.931Z,21.87
2018-02-15T10:24:58.191Z,20.62
2018-02-15T10:27:25.675Z,22.00
2018-02-15T10:29:51.708Z,20.83
2018-02-15T10:32:17.785Z,19.45
2018-02-15T10:34:43.890Z,20.55
2018-02-15T10:37:11.126Z,20.52
2018-02-15T10:39:37.912Z,22.20
2018-02-15T10:42:03.929Z,19.17
2018-02-15T10:44:29.946Z,22.45
2018-02-15T10:46:56.959Z,20.08
2018-02-15T10:49:23.671Z,25.73
2018-02-15T10:51:49.757Z,19.27
2018-02-15T10:54:15.826Z,18.95
2018-02-15T10:56:41.895Z,22.05
2018-02-15T10:59:07.886Z,18.00
2018-02-15T11:01:39.971Z,20.60
2018-02-15T11:04:12.372Z,20.58
2018-02-15T11:06:38.505Z,23.98
2018-02-15T11:09:04.506Z,19.90
2018-02-15T11:11:31.274Z,22.75
2018-02-15T11:13:57.826Z,21.60
2018-02-15T11:16:23.845Z,21.33
2018-02-15T11:18:50.049Z,23.80
2018-02-15T11:21:16.806Z,20.95
2018-02-15T11:23:42.856Z,18.77
2018-02-15T11:26:09.058Z,18.58
2018-02-15T11:28:35.800Z,24.08
2018-02-15T11:31:03.343Z,24.58
2018-02-15T11:33:29.459Z,30.77
2018-02-15T11:35:56.123Z,19.92
2018-02-15T11:38:22.136Z,21.00
2018-02-15T11:40:48.094Z,21.95
2018-02-15T11:43:14.815Z,22.17
2018-02-15T11:45:41.760Z,19.23
2018-02-15T11:48:08.427Z,21.60
2018-02-15T11:50:34.556Z,20.65
2018-02-15T11:53:01.250Z,22.40
2018-02-15T11:55:27.269Z,20.60
2018-02-15T11:57:53.284Z,31.67
2018-02-15T12:00:19.394Z,22.90
2018-02-15T12:02:45.442Z,21.50
2018-02-15T12:05:11.412Z,20.83
2018-02-15T12:07:37.562Z,17.60
2018-02-15T12:10:03.528Z,21.45
2018-02-15T12:12:36.367Z,21.27
2018-02-15T12:15:03.056Z,18.87
2018-02-15T12:17:29.023Z,23.27
2018-02-15T12:19:55.669Z,20.20
2018-02-15T12:22:21.613Z,23.55
2018-02-15T12:24:47.541Z,17.37
2018-02-15T12:27:13.516Z,21.43
2018-02-15T12:29:40.470Z,21.00
2018-02-15T12:32:07.220Z,20.10
2018-02-15T12:34:33.267Z,22.30
2018-02-15T12:37:00.126Z,25.00
2018-02-15T12:39:26.153Z,23.80
2018-02-15T12:41:52.142Z,24.37
2018-02-15T12:44:18.969Z,23.43
2018-02-15T12:46:45.109Z,23.62
2018-02-15T12:49:11.108Z,22.42
2018-02-15T12:51:37.298Z,28.00
2018-02-15T12:54:03.459Z,23.87
2018-02-15T12:56:29.458Z,23.92
2018-02-15T12:58:56.022Z,23.23
2018-02-15T13:01:22.757Z,25.88
2018-02-15T13:03:48.673Z,25.17
2018-02-15T13:06:14.688Z,26.63
2018-02-15T13:08:40.742Z,26.08
2018-02-15T13:11:07.407Z,30.65
2018-02-15T13:13:33.412Z,31.30
2018-02-15T13:16:11.646Z,27.77
2018-02-15T13:18:37.804Z,29.55
2018-02-15T13:21:03.795Z,28.12
2018-02-15T13:23:29.791Z,25.63
2018-02-15T13:25:55.892Z,31.60
2018-02-15T13:28:29.966Z,29.63
2018-02-15T13:30:56.943Z,30.17
2018-02-15T13:33:23.614Z,34.53
2018-02-15T13:35:49.529Z,31.65
2018-02-15T13:38:15.463Z,28.10
2018-02-15T13:40:41.812Z,35.10
2018-02-15T13:43:07.779Z,30.80
2018-02-15T13:45:33.750Z,31.73
2018-02-15T13:48:00.032Z,34.60
2018-02-15T13:50:26.717Z,31.25
2018-02-15T13:52:52.656Z,34.33
2018-02-15T13:55:18.580Z,34.20
2018-02-15T13:57:44.567Z,35.77
2018-02-15T14:00:10.688Z,36.03
2018-02-15T14:02:36.703Z,39.72
2018-02-15T14:05:02.740Z,38.88
2018-02-15T14:07:28.715Z,46.05
2018-02-15T14:09:56.411Z,43.00
2018-02-15T14:12:22.381Z,38.00
2018-02-15T14:14:49.059Z,36.67
2018-02-15T14:17:15.108Z,38.88
2018-02-15T14:19:41.034Z,38.83
2018-02-15T14:22:07.040Z,42.60
2018-02-15T14:24:33.587Z,39.97
2018-02-15T14:26:59.611Z,37.17
2018-02-15T14:29:25.582Z,34.67
2018-02-15T14:31:55.587Z,33.63
2018-02-15T14:34:23.114Z,34.45
2018-02-15T14:36:49.131Z,41.33
2018-02-15T14:39:15.114Z,45.58
2018-02-15T14:41:41.114Z,36.83
2018-02-15T14:44:07.100Z,43.30
2018-02-15T14:46:33.100Z,38.87
2018-02-15T14:48:59.142Z,43.27
2018-02-15T14:51:25.966Z,34.88
2018-02-15T14:53:51.993Z,42.45
2018-02-15T14:56:17.950Z,38.05
2018-02-15T14:58:43.879Z,40.80
2018-02-15T15:01:09.869Z,50.47
2018-02-15T15:03:35.839Z,35.97
2018-02-15T15:06:02.701Z,42.80
2018-02-15T15:08:28.698Z,38.22
2018-02-15T15:10:54.691Z,44.23
2018-02-15T15:13:20.803Z,43.28
2018-02-15T15:15:46.776Z,47.95
2018-02-15T15:18:12.841Z,48.03
2018-02-15T15:20:38.824Z,42.90
2018-02-15T15:23:05.535Z,44.57
2018-02-15T15:25:31.505Z,46.13
2018-02-15T15:27:57.490Z,45.47
2018-02-15T15:30:24.247Z,42.43
2018-02-15T15:32:50.955Z,45.75
2018-02-15T15:35:17.006Z,43.17
2018-02-15T15:37:43.155Z,42.92
2018-02-15T15:40:09.277Z,43.55
2018-02-15T15:42:36.112Z,44.10
2018-02-15T15:45:02.090Z,44.30
2018-02-15T15:47:28.087Z,54.07
2018-02-15T15:49:54.116Z,48.38
2018-02-15T15:52:20.122Z,48.45
2018-02-15T15:54:46.345Z,47.05
2018-02-15T15:57:12.506Z,57.33
2018-02-15T15:59:38.538Z,54.25
2018-02-15T16:02:04.452Z,53.95
2018-02-15T16:04:30.405Z,59.30
2018-02-15T16:06:57.147Z,53.93
2018-02-15T16:09:23.881Z,56.60
2018-02-15T16:11:49.867Z,58.83
2018-02-15T16:14:15.823Z,50.70
2018-02-15T16:16:42.551Z,59.77
2018-02-15T16:19:09.403Z,49.28
2018-02-15T16:21:36.121Z,60.30
2018-02-15T16:24:02.079Z,58.00
2018-02-15T16:26:33.926Z,68.53
2018-02-15T16:29:00.124Z,56.42
2018-02-15T16:31:26.080Z,59.63
2018-02-15T16:33:52.782Z,57.17
2018-02-15T16:36:18.741Z,55.28
2018-02-15T16:38:45.457Z,48.07
2018-02-15T16:41:12.261Z,53.00
2018-02-15T16:43:38.272Z,58.15
2018-02-15T16:46:04.274Z,57.33
2018-02-15T16:48:30.242Z,53.13
2018-02-15T16:50:56.275Z,53.80
2018-02-15T16:53:25.774Z,57.58
2018-02-15T16:55:52.437Z,49.15
2018-02-15T16:58:21.035Z,51.88
2018-02-15T17:00:47.224Z,52.38
2018-02-15T17:03:15.633Z,47.42
2018-02-15T17:05:43.102Z,48.78
2018-02-15T17:08:09.894Z,56.42
2018-02-15T17:10:35.869Z,49.67
2018-02-15T17:13:02.839Z,47.87
2018-02-15T17:15:28.961Z,56.45
2018-02-15T17:17:54.961Z,49.83
2018-02-15T17:20:21.141Z,51.83
2018-02-15T17:22:47.171Z,49.47
2018-02-15T17:25:13.175Z,49.10
2018-02-15T17:27:39.202Z,47.20
2018-02-15T17:30:06.404Z,50.85
2018-02-15T17:32:34.236Z,52.65
2018-02-15T17:35:00.206Z,49.85
2018-02-15T17:37:26.432Z,53.17
2018-02-15T17:39:52.649Z,50.10
2018-02-15T17:42:18.610Z,48.75
2018-02-15T17:44:44.944Z,53.67
2018-02-15T17:47:13.108Z,46.85
2018-02-15T17:49:39.113Z,54.13
2018-02-15T17:52:05.763Z,48.83
2018-02-15T17:54:31.731Z,58.78
2018-02-15T17:56:57.749Z,51.37
2018-02-15T17:59:24.745Z,53.57
2018-02-15T18:01:53.940Z,50.65
2018-02-15T18:04:19.926Z,50.38
2018-02-15T18:06:48.484Z,56.77
2018-02-15T18:09:14.863Z,54.05
2018-02-15T18:11:41.824Z,54.92
2018-02-15T18:14:09.465Z,55.15
2018-02-15T18:16:35.416Z,53.17
2018-02-15T18:19:01.380Z,57.57
2018-02-15T18:21:27.404Z,56.13
2018-02-15T18:23:53.582Z,60.50
2018-02-15T18:26:23.190Z,56.13
2018-02-15T18:28:49.219Z,58.35
2018-02-15T18:31:18.690Z,52.55
2018-02-15T18:33:45.405Z,55.70
2018-02-15T18:36:11.371Z,60.92
2018-02-15T18:38:37.289Z,69.87
2018-02-15T18:41:03.533Z,58.07
2018-02-15T18:43:29.424Z,63.30
2018-02-15T18:45:55.453Z,62.90
2018-02-15T18:48:21.428Z,54.88
2018-02-15T18:50:48.137Z,58.30
2018-02-15T18:53:14.135Z,61.63
2018-02-15T18:55:40.074Z,67.87
2018-02-15T18:58:06.240Z,63.07
2018-02-15T19:00:32.947Z,70.82
2018-02-15T19:02:58.894Z,70.03
2018-02-15T19:05:24.938Z,66.57
2018-02-15T19:07:50.856Z,72.87
2018-02-15T19:10:16.787Z,67.40
2018-02-15T19:12:42.710Z,66.00
2018-02-15T19:15:10.968Z,68.90
2018-02-15T19:17:36.899Z,66.03
2018-02-15T19:20:02.862Z,61.67
2018-02-15T19:22:28.851Z,66.73
2018-02-15T19:24:54.777Z,74.40
2018-02-15T19:27:21.244Z,64.43
2018-02-15T19:29:49.132Z,76.32
2018-02-15T19:32:15.123Z,64.97
2018-02-15T19:34:41.149Z,66.63
2018-02-15T19:37:08.161Z,56.90
2018-02-15T19:39:34.347Z,75.32
2018-02-15T19:42:00.715Z,71.47
2018-02-15T19:44:26.792Z,76.70
2018-02-15T19:46:55.585Z,71.87
2018-02-15T19:49:24.230Z,79.30
2018-02-15T19:51:50.542Z,80.45
2018-02-15T19:54:16.532Z,73.93
2018-02-15T19:56:46.584Z,74.40
2018-02-15T19:59:16.538Z,79.85
2018-02-15T20:01:45.565Z,74.90
2018-02-15T20:04:14.142Z,82.03
2018-02-15T20:06:40.163Z,79.78
2018-02-15T20:09:06.164Z,81.95
2018-02-15T20:11:38.672Z,91.13
2018-02-15T20:14:05.456Z,85.70
2018-02-15T20:16:32.103Z,89.55
2018-02-15T20:18:59.498Z,87.60
2018-02-15T20:21:25.452Z,70.80
2018-02-15T20:23:51.540Z,82.90
2018-02-15T20:26:24.504Z,90.38
2018-02-15T20:28:50.639Z,69.50
2018-02-15T20:31:16.625Z,79.93
2018-02-15T20:33:42.584Z,90.40
2018-02-15T20:36:08.680Z,72.83
2018-02-15T20:38:41.506Z,86.95
2018-02-15T20:41:09.196Z,90.72
2018-02-15T20:43:35.184Z,81.87
2018-02-15T20:46:01.786Z,85.90
2018-02-15T20:48:28.766Z,91.15
2018-02-15T20:51:01.070Z,100.40
2018-02-15T20:53:33.124Z,77.12
2018-02-15T20:55:59.104Z,88.87
2018-02-15T20:58:25.762Z,81.07
2018-02-15T21:00:51.764Z,85.18
2018-02-15T21:03:17.859Z,86.30
2018-02-15T21:05:43.918Z,79.87
2018-02-15T21:08:10.142Z,78.93
2018-02-15T21:10:36.115Z,78.07
2018-02-15T21:13:02.234Z,87.37
2018-02-15T21:15:29.470Z,82.37
2018-02-15T21:17:55.423Z,79.93
2018-02-15T21:20:21.415Z,84.70
2018-02-15T21:22:47.547Z,81.47
2018-02-15T21:25:13.528Z,83.97
2018-02-15T21:27:39.599Z,96.90
2018-02-15T21:30:05.836Z,87.62
2018-02-15T21:32:31.856Z,96.25
2018-02-15T21:34:57.830Z,85.38
2018-02-15T21:37:23.762Z,87.23
2018-02-15T21:39:50.533Z,82.27
2018-02-15T21:42:16.508Z,94.18
2018-02-15T21:44:42.540Z,84.37
2018-02-15T21:47:09.252Z,100.93
2018-02-15T21:49:35.252Z,104.65
2018-02-15T21:52:01.231Z,80.00
2018-02-15T21:54:28.161Z,99.17
2018-02-15T21:56:54.955Z,97.12
2018-02-15T21:59:21.975Z,101.97
2018-02-15T22:01:48.720Z,105.43
2018-02-15T22:04:14.735Z,96.35
2018-02-15T22:06:41.409Z,113.05
2018-02-15T22:09:07.422Z,111.80
2018-02-15T22:11:33.398Z,103.47
2018-02-15T22:14:00.303Z,98.47
2018-02-15T22:16:26.282Z,103.95
2018-02-15T22:18:52.436Z,103.13
2018-02-15T22:21:20.186Z,104.43
2018-02-15T22:23:46.304Z,99.00
2018-02-15T22:26:12.291Z,101.43
2018-02-15T22:28:38.226Z,102.30
2018-02-15T22:31:05.807Z,88.83
2018-02-15T22:33:31.806Z,100.95
2018-02-15T22:35:58.552Z,88.43
2018-02-15T22:38:24.566Z,90.43
2018-02-15T22:40:50.586Z,95.57
2018-02-15T22:43:18.214Z,99.47
2018-02-15T22:45:44.224Z,93.87
2018-02-15T22:48:10.222Z,80.50
2018-02-15T22:50:36.206Z,89.90
2018-02-15T22:53:02.282Z,83.57
2018-02-15T22:55:28.262Z,81.15
2018-02-15T22:57:54.232Z,77.93
2018-02-15T23:00:20.926Z,81.17
2018-02-15T23:02:46.854Z,86.57
2018-02-15T23:05:13.533Z,93.73
2018-02-15T23:07:39.606Z,89.65
2018-02-15T23:10:05.530Z,85.80
2018-02-15T23:12:32.193Z,79.43
2018-02-15T23:14:58.814Z,87.60
2018-02-15T23:17:25.493Z,84.90
2018-02-15T23:19:53.158Z,85.07
2018-02-15T23:22:19.095Z,75.82
2018-02-15T23:24:45.181Z,72.40
2018-02-15T23:27:11.124Z,83.12
2018-02-15T23:29:37.976Z,80.60
2018-02-15T23:32:03.928Z,77.22
2018-02-15T23:34:30.676Z,83.03
2018-02-15T23:36:56.613Z,75.75
2018-02-15T23:39:23.517Z,81.30
2018-02-15T23:41:50.234Z,68.18
2018-02-15T23:44:16.169Z,74.25
2018-02-15T23:46:42.142Z,80.83
2018-02-15T23:49:08.159Z,72.90
2018-02-15T23:51:34.120Z,74.50
2018-02-15T23:54:00.079Z,70.83
2018-02-15T23:56:26.051Z,72.13
2018-02-15T23:58:51.958Z,76.03
